Time;durP1;ratioP1;P1;durP2;ratioP2;P2;SDS_P1;SDS_P2;PMS_P1;PMS_P2;Temp;Humidity;BMP_temperature;BMP_pressure;BME280_temperature;BME280_humidity;BME280_pressure;Samples;Min_cycle;Max_cycle;Signal;HPM_P1;HPM_P2
2023/10/17 00:08:28;;;;;;;8.43;4.57;;;7.70;85.90;;;;;;20997551;28;20294;-70
2023/10/17 00:18:31;;;;;;;8.40;4.13;;;7.70;86.50;;;;;;20996630;28;20286;-70
2023/10/17 00:28:33;;;;;;;9.90;4.47;;;7.40;86.60;;;;;;20997055;28;20578;-70
2023/10/17 00:38:35;;;;;;;7.93;4.30;;;7.40;87.20;;;;;;20995922;28;20698;-69
2023/10/17 00:48:37;;;;;;;11.10;4.67;;;7.30;87.60;;;;;;20995431;28;20706;-69
2023/10/17 00:58:42;;;;;;;7.53;4.47;;;7.30;87.30;;;;;;20994842;28;20299;-69
2023/10/17 01:08:47;;;;;;;7.57;4.30;;;7.30;87.80;;;;;;20994732;28;20285;-68
2023/10/17 01:18:50;;;;;;;8.70;4.90;;;7.10;87.90;;;;;;20993729;28;20651;-69
2023/10/17 01:28:53;;;;;;;8.57;4.67;;;7.00;88.40;;;;;;20993336;28;20217;-70
2023/10/17 01:38:55;;;;;;;4.83;3.90;;;6.90;88.50;;;;;;20993330;28;20326;-70
2023/10/17 01:49:00;;;;;;;6.17;4.37;;;6.60;88.60;;;;;;21001811;28;20216;-69
2023/10/17 01:59:13;;;;;;;10.67;4.93;;;6.60;89.20;;;;;;21007363;28;20249;-69
2023/10/17 02:19:32;;;;;;;8.30;4.10;;;6.40;89.40;;;;;;21005724;28;20237;-68
2023/10/17 02:29:39;;;;;;;11.43;4.57;;;6.40;90.00;;;;;;21005461;28;20577;-68
2023/10/17 02:39:40;;;;;;;10.10;3.97;;;6.50;89.90;;;;;;21004297;28;20285;-69
2023/10/17 02:49:46;;;;;;;6.83;4.50;;;6.30;89.70;;;;;;21003498;28;20266;-68
2023/10/17 02:59:51;;;;;;;6.53;4.23;;;6.20;89.90;;;;;;20918479;28;20326;-68
2023/10/17 03:09:53;;;;;;;8.50;4.70;;;6.30;90.20;;;;;;20919838;28;20206;-69
2023/10/17 03:19:57;;;;;;;7.93;3.77;;;6.30;89.90;;;;;;20918240;28;20241;-69
2023/10/17 03:30:05;;;;;;;6.40;4.17;;;6.10;90.00;;;;;;20917730;28;20206;-69
2023/10/17 03:40:30;;;;;;;9.67;4.50;;;6.10;90.20;;;;;;20917130;28;20327;-69
2023/10/17 03:50:33;;;;;;;7.27;4.47;;;6.10;90.40;;;;;;20922391;28;20328;-69
2023/10/17 04:00:44;;;;;;;10.90;4.60;;;6.40;90.50;;;;;;20997464;28;20273;-69
2023/10/17 04:11:36;;;;;;;9.67;4.40;;;6.50;90.50;;;;;;20997101;28;20203;-68
2023/10/17 04:31:31;;;;;;;9.37;5.90;;;6.20;90.40;;;;;;20995413;28;20759;-68
2023/10/17 04:41:41;;;;;;;8.77;5.30;;;6.30;90.50;;;;;;20993630;28;20325;-68
2023/10/17 04:51:43;;;;;;;9.80;5.53;;;6.40;90.60;;;;;;20994796;28;20232;-69
2023/10/17 05:01:53;;;;;;;10.13;5.77;;;6.50;90.90;;;;;;20994469;28;20243;-70
2023/10/17 06:24:45;;;;;;;15.97;7.47;;;6.40;92.00;;;;;;21005658;28;20243;-69
2023/10/17 06:34:42;;;;;;;15.30;7.73;;;6.50;92.30;;;;;;21004094;28;20235;-69
2023/10/17 06:44:53;;;;;;;14.67;6.50;;;6.60;92.40;;;;;;21003624;28;20232;-69
2023/10/17 06:54:59;;;;;;;14.80;6.77;;;6.70;92.70;;;;;;21002674;28;20284;-69
2023/10/17 07:05:01;;;;;;;16.00;7.07;;;6.80;92.60;;;;;;20954320;28;20727;-70
2023/10/17 07:15:12;;;;;;;21.80;7.50;;;7.00;92.80;;;;;;20982285;28;20231;-69
2023/10/17 07:25:17;;;;;;;22.10;11.60;;;7.30;92.90;;;;;;20917809;28;20211;-66
2023/10/17 07:35:30;;;;;;;21.13;9.30;;;7.50;93.10;;;;;;20961327;28;20630;-67
2023/10/17 07:45:38;;;;;;;32.73;15.20;;;7.70;92.90;;;;;;20936054;28;20219;-68
2023/10/17 07:55:46;;;;;;;31.07;13.47;;;8.00;92.80;;;;;;20915045;28;20335;-67
2023/10/17 08:16:23;;;;;;;23.63;10.90;;;8.50;92.50;;;;;;20996388;28;20236;-68
2023/10/17 08:26:29;;;;;;;10.97;5.40;;;8.80;92.30;;;;;;20996120;28;20254;-69
2023/10/17 08:46:43;;;;;;;8.73;4.23;;;9.40;91.50;;;;;;20994941;28;20689;-70
2023/10/17 08:56:47;;;;;;;4.63;3.40;;;9.60;90.80;;;;;;21002823;28;20245;-70
2023/10/17 09:06:59;;;;;;;4.80;3.90;;;9.60;91.00;;;;;;20988650;28;20210;-69
2023/10/17 09:17:21;;;;;;;8.57;4.90;;;10.10;89.00;;;;;;20927459;28;20234;-69
2023/10/17 09:27:23;;;;;;;16.93;6.70;;;10.30;87.70;;;;;;20926463;28;20659;-69
2023/10/17 09:37:27;;;;;;;10.17;3.90;;;10.50;86.40;;;;;;20926206;28;20230;-71
2023/10/17 09:47:30;;;;;;;4.37;3.40;;;10.60;85.20;;;;;;20925300;28;20617;-70
2023/10/17 09:57:35;;;;;;;7.13;3.83;;;10.80;83.80;;;;;;20924147;28;20650;-69
2023/10/17 10:07:37;;;;;;;11.40;5.00;;;11.00;82.70;;;;;;20952960;28;20265;-68
2023/10/17 10:17:46;;;;;;;7.87;4.90;;;11.10;81.60;;;;;;21005558;28;20326;-68
2023/10/17 10:27:56;;;;;;;8.67;3.77;;;11.40;80.80;;;;;;21004903;28;20207;-68
2023/10/17 10:37:59;;;;;;;6.90;3.30;;;11.40;79.50;;;;;;21004502;28;20241;-70
2023/10/17 10:48:22;;;;;;;8.13;2.80;;;11.50;78.20;;;;;;21003065;28;20290;-70
2023/10/17 10:58:25;;;;;;;5.50;2.67;;;11.60;78.80;;;;;;21002672;28;20247;-69
2023/10/17 11:08:37;;;;;;;5.27;3.23;;;11.60;76.70;;;;;;20947722;28;20292;-69
2023/10/17 11:18:43;;;;;;;6.00;2.90;;;11.70;77.00;;;;;;20917332;28;20592;-70
2023/10/17 11:28:51;;;;;;;5.13;2.60;;;11.80;76.30;;;;;;20918809;28;20216;-70
2023/10/17 11:38:56;;;;;;;4.60;2.80;;;12.00;75.40;;;;;;20899665;28;20241;-71
2023/10/17 11:49:28;;;;;;;4.03;2.33;;;12.10;73.90;;;;;;20916249;28;20214;-69
2023/10/17 11:59:30;;;;;;;4.83;2.47;;;12.20;71.70;;;;;;20915412;28;20242;-67
2023/10/17 12:09:31;;;;;;;4.63;2.60;;;12.40;71.80;;;;;;20959957;28;20208;-67
2023/10/17 12:19:33;;;;;;;4.20;2.40;;;12.40;70.20;;;;;;20996081;28;20238;-67
2023/10/17 12:29:35;;;;;;;3.30;2.40;;;12.50;69.50;;;;;;20995729;28;20213;-67
2023/10/17 12:39:40;;;;;;;5.03;2.80;;;12.40;67.60;;;;;;20995762;28;20596;-68
2023/10/17 12:49:42;;;;;;;4.30;2.47;;;12.60;67.20;;;;;;20992955;28;20212;-67
2023/10/17 12:59:43;;;;;;;5.87;2.57;;;12.60;67.80;;;;;;20993717;28;20340;-69
2023/10/17 13:09:45;;;;;;;5.07;2.60;;;12.90;65.80;;;;;;20946884;28;20298;-69
2023/10/17 13:19:50;;;;;;;4.00;2.30;;;13.10;65.50;;;;;;20893120;28;20242;-69
2023/10/17 13:29:53;;;;;;;4.00;2.57;;;13.50;64.20;;;;;;20910060;28;20303;-69
2023/10/17 13:39:55;;;;;;;4.60;2.13;;;14.20;62.00;;;;;;20911903;28;20378;-69
2023/10/17 13:49:58;;;;;;;5.13;2.27;;;;;;;;;;20924871;28;20216;-66
2023/10/17 14:00:00;;;;;;;5.33;2.20;;;15.20;59.40;;;;;;20924409;28;20238;-65
2023/10/17 14:10:09;;;;;;;6.90;2.20;;;15.60;57.40;;;;;;20973299;28;20211;-65
2023/10/17 14:20:28;;;;;;;3.27;2.27;;;15.80;56.20;;;;;;21005753;28;20687;-70
2023/10/17 14:30:29;;;;;;;5.57;2.07;;;15.80;54.80;;;;;;21004862;28;20229;-69
2023/10/17 14:40:31;;;;;;;4.07;2.23;;;15.50;54.20;;;;;;21004044;28;20239;-69
2023/10/17 14:50:33;;;;;;;9.93;2.53;;;15.50;54.10;;;;;;21002674;28;20330;-69
2023/10/17 15:00:37;;;;;;;9.17;2.00;;;15.50;54.60;;;;;;21002457;28;20235;-69
2023/10/17 15:10:39;;;;;;;4.47;2.80;;;15.40;53.20;;;;;;20947258;28;20202;-68
2023/10/17 15:20:41;;;;;;;5.03;2.73;;;15.20;53.40;;;;;;20918420;28;20715;-67
2023/10/17 15:30:44;;;;;;;3.70;2.70;;;14.60;54.20;;;;;;20917484;28;20288;-69
2023/10/17 15:40:49;;;;;;;5.73;2.63;;;14.60;54.80;;;;;;20916917;28;20258;-73
2023/10/17 15:50:57;;;;;;;4.60;2.77;;;13.90;55.50;;;;;;20916809;28;20238;-77
2023/10/17 16:00:59;;;;;;;13.13;3.50;;;13.90;56.10;;;;;;20917037;28;20236;-70
2023/10/17 16:11:02;;;;;;;4.53;2.80;;;13.40;56.60;;;;;;20972269;28;20639;-74
2023/10/17 16:21:09;;;;;;;9.37;4.27;;;13.20;57.10;;;;;;20996611;28;20322;-69
2023/10/17 16:31:13;;;;;;;10.90;5.10;;;13.00;57.90;;;;;;20995970;28;20207;-71
2023/10/17 16:41:15;;;;;;;24.30;5.50;;;13.00;58.40;;;;;;20995753;28;20704;-69
2023/10/17 16:51:18;;;;;;;10.57;6.63;;;12.40;59.60;;;;;;20995588;28;20636;-75
2023/10/17 17:01:20;;;;;;;9.07;4.03;;;12.40;60.00;;;;;;20994713;28;20231;-73
2023/10/17 17:11:22;;;;;;;8.43;4.50;;;11.90;61.50;;;;;;20933593;28;20209;-69
2023/10/17 17:21:24;;;;;;;8.17;4.10;;;11.60;62.40;;;;;;20924416;28;20333;-74
2023/10/17 17:31:26;;;;;;;16.40;9.03;;;11.60;63.10;;;;;;20927111;28;20309;-76
2023/10/17 17:41:28;;;;;;;16.17;7.60;;;11.40;63.80;;;;;;20926315;28;20286;-70
2023/10/17 17:51:30;;;;;;;12.07;6.40;;;;;;;;;;20925708;28;20235;-69
2023/10/17 18:01:33;;;;;;;11.10;5.87;;;10.80;66.20;;;;;;20931082;28;20594;-71
2023/10/17 18:11:36;;;;;;;12.33;6.10;;;10.70;66.90;;;;;;20971343;28;20202;-71
2023/10/17 18:21:38;;;;;;;12.07;6.40;;;10.40;67.90;;;;;;20961021;28;20228;-70
2023/10/17 18:31:40;;;;;;;14.20;6.57;;;10.20;68.80;;;;;;20926764;28;20246;-68
2023/10/17 18:41:42;;;;;;;18.90;10.43;;;10.00;69.70;;;;;;20949430;28;20732;-69
2023/10/17 18:51:44;;;;;;;33.63;15.93;;;9.90;71.40;;;;;;20961826;28;20233;-70
2023/10/17 19:01:46;;;;;;;17.80;11.07;;;9.80;72.20;;;;;;20955374;28;20328;-70
2023/10/17 19:11:48;;;;;;;14.00;8.10;;;9.70;73.20;;;;;;20958922;28;20215;-70
2023/10/17 19:21:50;;;;;;;15.90;9.40;;;9.50;73.70;;;;;;20954757;28;20238;-70
2023/10/17 19:31:51;;;;;;;17.83;9.87;;;9.20;74.60;;;;;;20953510;28;20572;-70
2023/10/17 19:41:53;;;;;;;30.53;14.17;;;9.20;75.20;;;;;;20955769;28;20232;-71
2023/10/17 19:51:55;;;;;;;17.60;8.67;;;9.00;76.40;;;;;;20934620;28;20234;-71
2023/10/17 20:01:57;;;;;;;15.83;8.90;;;8.90;77.30;;;;;;20950299;28;20759;-70
2023/10/17 20:11:59;;;;;;;25.50;9.30;;;8.90;77.80;;;;;;20955758;28;20665;-70
2023/10/17 20:22:10;;;;;;;18.97;10.07;;;8.90;78.80;;;;;;20949657;28;20243;-70
2023/10/17 20:32:13;;;;;;;16.20;10.57;;;8.70;79.40;;;;;;20959994;28;20204;-69
2023/10/17 20:42:15;;;;;;;17.73;10.57;;;8.60;80.00;;;;;;20912890;28;20297;-69
2023/10/17 20:52:16;;;;;;;18.87;11.97;;;8.40;80.40;;;;;;20935394;28;20244;-69
2023/10/17 21:02:20;;;;;;;20.40;12.30;;;8.40;81.20;;;;;;20982524;28;20325;-69
2023/10/17 21:14:24;;;;;;;23.80;12.77;;;8.20;81.40;;;;;;20984547;28;20569;-68
2023/10/17 21:24:26;;;;;;;22.00;11.87;;;8.10;82.00;;;;;;20983665;28;20241;-69
2023/10/17 21:34:28;;;;;;;17.13;10.50;;;8.00;82.60;;;;;;20980452;28;20299;-70
2023/10/17 21:44:30;;;;;;;48.93;22.20;;;7.80;82.80;;;;;;20981803;28;20208;-70
2023/10/17 21:54:32;;;;;;;44.47;19.00;;;7.70;84.20;;;;;;20981465;28;20207;-69
2023/10/17 22:04:34;;;;;;;24.30;12.80;;;7.70;84.50;;;;;;20979522;28;20235;-69
2023/10/17 22:14:36;;;;;;;19.47;10.57;;;7.50;85.00;;;;;;20979310;28;20221;-69
2023/10/17 22:24:40;;;;;;;20.60;10.33;;;7.50;85.70;;;;;;20930075;28;20666;-69
2023/10/17 22:34:56;;;;;;;15.90;9.07;;;7.60;86.40;;;;;;20923564;28;20503;-69
2023/10/17 22:44:58;;;;;;;15.13;8.47;;;7.50;86.30;;;;;;20922222;28;20226;-69
2023/10/17 22:55:00;;;;;;;12.20;8.03;;;7.40;87.20;;;;;;20921796;28;20673;-69
2023/10/17 23:05:01;;;;;;;9.90;6.97;;;7.20;87.20;;;;;;20920832;28;20244;-69
2023/10/17 23:15:04;;;;;;;12.03;6.47;;;7.10;88.40;;;;;;20919967;28;20204;-69
2023/10/17 23:25:07;;;;;;;14.07;7.47;;;7.20;88.30;;;;;;20918940;28;20232;-69
2023/10/17 23:35:09;;;;;;;13.37;6.90;;;7.20;88.40;;;;;;20917653;28;20207;-70
2023/10/17 23:45:15;;;;;;;11.40;6.67;;;6.90;88.30;;;;;;20917543;28;20432;-69
2023/10/17 23:55:17;;;;;;;13.43;6.00;;;6.90;89.20;;;;;;20916833;28;20222;-67
